sensor_id;sensor_type;location;lat;lon;timestamp;temperature;humidity
9043;DHT22;4556;49.150;8.808;2022-10-16T00:01:29;15.20;99.90
9043;DHT22;4556;49.150;8.808;2022-10-16T00:03:57;17.60;99.90
9043;DHT22;4556;49.150;8.808;2022-10-16T00:06:27;15.30;99.90
9043;DHT22;4556;49.150;8.808;2022-10-16T00:08:55;15.30;99.90
9043;DHT22;4556;49.150;8.808;2022-10-16T00:11:23;15.40;99.90
9043;DHT22;4556;49.150;8.808;2022-10-16T00:13:56;15.50;99.90
9043;DHT22;4556;49.150;8.808;2022-10-16T00:16:24;15.60;99.90
9043;DHT22;4556;49.150;8.808;2022-10-16T00:18:51;15.60;99.90
9043;DHT22;4556;49.150;8.808;2022-10-16T00:21:20;15.40;99.90
9043;DHT22;4556;49.150;8.808;2022-10-16T00:23:50;15.30;99.90
9043;DHT22;4556;49.150;8.808;2022-10-16T00:26:18;15.40;99.90
9043;DHT22;4556;49.150;8.808;2022-10-16T00:28:46;15.50;99.90
9043;DHT22;4556;49.150;8.808;2022-10-16T00:31:16;15.50;99.90
9043;DHT22;4556;49.150;8.808;2022-10-16T00:33:43;15.50;99.90
9043;DHT22;4556;49.150;8.808;2022-10-16T00:36:11;15.60;99.90
9043;DHT22;4556;49.150;8.808;2022-10-16T00:38:39;16.80;99.90
9043;DHT22;4556;49.150;8.808;2022-10-16T00:41:07;15.60;99.90
9043;DHT22;4556;49.150;8.808;2022-10-16T00:43:37;17.20;99.90
9043;DHT22;4556;49.150;8.808;2022-10-16T00:46:11;15.60;99.90
9043;DHT22;4556;49.150;8.808;2022-10-16T00:48:43;17.10;99.90
9043;DHT22;4556;49.150;8.808;2022-10-16T00:51:12;16.90;99.90
9043;DHT22;4556;49.150;8.808;2022-10-16T00:53:39;16.00;99.90
9043;DHT22;4556;49.150;8.808;2022-10-16T00:56:06;17.00;99.90
9043;DHT22;4556;49.150;8.808;2022-10-16T00:58:33;15.50;99.90
9043;DHT22;4556;49.150;8.808;2022-10-16T01:01:00;15.80;99.90
9043;DHT22;4556;49.150;8.808;2022-10-16T01:03:29;15.40;99.90
9043;DHT22;4556;49.150;8.808;2022-10-16T01:09:01;15.50;99.90
9043;DHT22;4556;49.150;8.808;2022-10-16T01:11:35;15.50;99.90
9043;DHT22;4556;49.150;8.808;2022-10-16T01:14:11;16.80;99.90
9043;DHT22;4556;49.150;8.808;2022-10-16T01:16:48;15.60;99.90
9043;DHT22;4556;49.150;8.808;2022-10-16T01:19:21;16.00;99.90
9043;DHT22;4556;49.150;8.808;2022-10-16T01:21:53;15.60;99.90
9043;DHT22;4556;49.150;8.808;2022-10-16T01:24:30;17.00;99.90
9043;DHT22;4556;49.150;8.808;2022-10-16T01:27:23;15.50;99.90
9043;DHT22;4556;49.150;8.808;2022-10-16T01:29:54;15.50;99.90
9043;DHT22;4556;49.150;8.808;2022-10-16T01:32:28;15.70;99.90
9043;DHT22;4556;49.150;8.808;2022-10-16T01:35:02;15.60;99.90
9043;DHT22;4556;49.150;8.808;2022-10-16T01:37:34;15.70;99.90
9043;DHT22;4556;49.150;8.808;2022-10-16T01:40:05;15.60;99.90
9043;DHT22;4556;49.150;8.808;2022-10-16T01:42:39;15.70;99.90
9043;DHT22;4556;49.150;8.808;2022-10-16T01:45:09;15.60;99.90
9043;DHT22;4556;49.150;8.808;2022-10-16T01:47:39;16.20;99.90
9043;DHT22;4556;49.150;8.808;2022-10-16T01:50:08;15.60;99.90
9043;DHT22;4556;49.150;8.808;2022-10-16T01:52:37;15.70;99.90
9043;DHT22;4556;49.150;8.808;2022-10-16T01:55:07;18.30;99.90
9043;DHT22;4556;49.150;8.808;2022-10-16T01:57:41;16.30;99.90
9043;DHT22;4556;49.150;8.808;2022-10-16T02:00:12;15.60;99.90
9043;DHT22;4556;49.150;8.808;2022-10-16T02:02:40;15.60;99.90
9043;DHT22;4556;49.150;8.808;2022-10-16T02:05:13;16.50;99.90
9043;DHT22;4556;49.150;8.808;2022-10-16T02:07:41;15.70;99.90
9043;DHT22;4556;49.150;8.808;2022-10-16T02:10:09;15.70;99.90
9043;DHT22;4556;49.150;8.808;2022-10-16T02:12:41;18.00;99.90
9043;DHT22;4556;49.150;8.808;2022-10-16T02:15:09;15.60;99.90
9043;DHT22;4556;49.150;8.808;2022-10-16T02:17:36;17.10;99.90
9043;DHT22;4556;49.150;8.808;2022-10-16T02:20:05;15.50;99.90
9043;DHT22;4556;49.150;8.808;2022-10-16T02:22:34;15.60;99.90
9043;DHT22;4556;49.150;8.808;2022-10-16T02:25:06;15.60;99.90
9043;DHT22;4556;49.150;8.808;2022-10-16T02:27:40;15.70;99.90
9043;DHT22;4556;49.150;8.808;2022-10-16T02:30:13;15.70;99.90
9043;DHT22;4556;49.150;8.808;2022-10-16T02:32:44;15.80;99.90
9043;DHT22;4556;49.150;8.808;2022-10-16T02:35:11;18.40;99.90
9043;DHT22;4556;49.150;8.808;2022-10-16T02:37:40;15.60;99.90
9043;DHT22;4556;49.150;8.808;2022-10-16T02:40:09;15.60;99.90
9043;DHT22;4556;49.150;8.808;2022-10-16T02:42:39;15.60;99.90
9043;DHT22;4556;49.150;8.808;2022-10-16T02:45:09;15.60;99.90
9043;DHT22;4556;49.150;8.808;2022-10-16T02:47:36;15.50;99.90
9043;DHT22;4556;49.150;8.808;2022-10-16T02:50:04;15.50;99.90
9043;DHT22;4556;49.150;8.808;2022-10-16T02:52:31;15.40;99.90
9043;DHT22;4556;49.150;8.808;2022-10-16T02:54:58;15.40;99.90
9043;DHT22;4556;49.150;8.808;2022-10-16T02:57:26;17.10;99.90
9043;DHT22;4556;49.150;8.808;2022-10-16T02:59:54;15.50;99.90
9043;DHT22;4556;49.150;8.808;2022-10-16T03:02:21;15.50;99.90
9043;DHT22;4556;49.150;8.808;2022-10-16T03:04:48;16.30;99.90
9043;DHT22;4556;49.150;8.808;2022-10-16T03:07:16;16.40;99.90
9043;DHT22;4556;49.150;8.808;2022-10-16T03:09:43;15.50;99.90
9043;DHT22;4556;49.150;8.808;2022-10-16T03:12:10;15.50;99.90
9043;DHT22;4556;49.150;8.808;2022-10-16T03:14:37;17.50;99.90
9043;DHT22;4556;49.150;8.808;2022-10-16T03:17:06;15.50;99.90
9043;DHT22;4556;49.150;8.808;2022-10-16T03:19:34;15.50;99.90
9043;DHT22;4556;49.150;8.808;2022-10-16T03:22:01;15.40;99.90
9043;DHT22;4556;49.150;8.808;2022-10-16T03:24:28;15.40;99.90
9043;DHT22;4556;49.150;8.808;2022-10-16T03:26:55;15.40;99.90
9043;DHT22;4556;49.150;8.808;2022-10-16T03:29:23;15.40;99.90
9043;DHT22;4556;49.150;8.808;2022-10-16T03:31:51;15.40;99.90
9043;DHT22;4556;49.150;8.808;2022-10-16T03:34:19;15.40;99.90
9043;DHT22;4556;49.150;8.808;2022-10-16T03:36:46;15.40;99.90
9043;DHT22;4556;49.150;8.808;2022-10-16T03:39:13;16.30;99.90
9043;DHT22;4556;49.150;8.808;2022-10-16T03:41:41;15.70;99.90
9043;DHT22;4556;49.150;8.808;2022-10-16T03:44:07;15.40;99.90
9043;DHT22;4556;49.150;8.808;2022-10-16T03:46:34;15.30;99.90
9043;DHT22;4556;49.150;8.808;2022-10-16T03:49:02;17.00;99.90
9043;DHT22;4556;49.150;8.808;2022-10-16T03:51:30;17.50;99.90
9043;DHT22;4556;49.150;8.808;2022-10-16T03:53:57;15.30;99.90
9043;DHT22;4556;49.150;8.808;2022-10-16T03:56:25;15.40;99.90
9043;DHT22;4556;49.150;8.808;2022-10-16T03:58:52;15.50;99.90
9043;DHT22;4556;49.150;8.808;2022-10-16T04:01:19;15.00;99.90
9043;DHT22;4556;49.150;8.808;2022-10-16T04:03:46;15.30;99.90
9043;DHT22;4556;49.150;8.808;2022-10-16T04:06:13;15.30;99.90
9043;DHT22;4556;49.150;8.808;2022-10-16T04:08:44;15.30;99.90
9043;DHT22;4556;49.150;8.808;2022-10-16T04:11:11;16.40;99.90
9043;DHT22;4556;49.150;8.808;2022-10-16T04:13:38;15.40;99.90
9043;DHT22;4556;49.150;8.808;2022-10-16T04:16:05;15.90;99.90
9043;DHT22;4556;49.150;8.808;2022-10-16T04:18:32;15.20;99.90
9043;DHT22;4556;49.150;8.808;2022-10-16T04:21:03;15.30;99.90
9043;DHT22;4556;49.150;8.808;2022-10-16T04:23:30;15.30;99.90
9043;DHT22;4556;49.150;8.808;2022-10-16T04:25:59;17.50;99.90
9043;DHT22;4556;49.150;8.808;2022-10-16T04:28:26;18.70;99.90
9043;DHT22;4556;49.150;8.808;2022-10-16T04:30:53;16.60;99.90
9043;DHT22;4556;49.150;8.808;2022-10-16T04:33:20;16.30;99.90
9043;DHT22;4556;49.150;8.808;2022-10-16T04:35:48;15.50;99.90
9043;DHT22;4556;49.150;8.808;2022-10-16T04:38:14;15.20;99.90
9043;DHT22;4556;49.150;8.808;2022-10-16T04:40:41;15.50;99.90
9043;DHT22;4556;49.150;8.808;2022-10-16T04:43:10;15.10;99.90
9043;DHT22;4556;49.150;8.808;2022-10-16T04:45:37;15.00;99.90
9043;DHT22;4556;49.150;8.808;2022-10-16T04:48:04;15.10;99.90
9043;DHT22;4556;49.150;8.808;2022-10-16T04:50:31;15.20;99.90
9043;DHT22;4556;49.150;8.808;2022-10-16T04:52:58;15.10;99.90
9043;DHT22;4556;49.150;8.808;2022-10-16T04:55:25;15.10;99.90
9043;DHT22;4556;49.150;8.808;2022-10-16T04:57:52;14.90;99.90
9043;DHT22;4556;49.150;8.808;2022-10-16T05:00:21;14.90;99.90
9043;DHT22;4556;49.150;8.808;2022-10-16T05:02:49;15.10;99.90
9043;DHT22;4556;49.150;8.808;2022-10-16T05:05:17;15.30;99.90
9043;DHT22;4556;49.150;8.808;2022-10-16T05:07:45;16.20;99.90
9043;DHT22;4556;49.150;8.808;2022-10-16T05:10:12;14.90;99.90
9043;DHT22;4556;49.150;8.808;2022-10-16T05:12:39;17.10;99.90
9043;DHT22;4556;49.150;8.808;2022-10-16T05:15:07;16.30;99.90
9043;DHT22;4556;49.150;8.808;2022-10-16T05:17:35;15.10;99.90
9043;DHT22;4556;49.150;8.808;2022-10-16T05:20:03;15.10;99.90
9043;DHT22;4556;49.150;8.808;2022-10-16T05:22:30;15.00;99.90
9043;DHT22;4556;49.150;8.808;2022-10-16T05:24:57;15.00;99.90
9043;DHT22;4556;49.150;8.808;2022-10-16T05:27:24;16.40;99.90
9043;DHT22;4556;49.150;8.808;2022-10-16T05:29:51;17.30;99.90
9043;DHT22;4556;49.150;8.808;2022-10-16T05:32:18;15.20;99.90
9043;DHT22;4556;49.150;8.808;2022-10-16T05:34:46;17.10;99.90
9043;DHT22;4556;49.150;8.808;2022-10-16T05:37:13;16.50;99.90
9043;DHT22;4556;49.150;8.808;2022-10-16T05:39:40;15.00;99.90
9043;DHT22;4556;49.150;8.808;2022-10-16T05:42:08;15.50;99.90
9043;DHT22;4556;49.150;8.808;2022-10-16T05:44:35;14.90;99.90
9043;DHT22;4556;49.150;8.808;2022-10-16T05:47:02;16.40;99.90
9043;DHT22;4556;49.150;8.808;2022-10-16T05:49:29;16.30;99.90
9043;DHT22;4556;49.150;8.808;2022-10-16T05:51:58;16.40;99.90
9043;DHT22;4556;49.150;8.808;2022-10-16T05:54:25;14.90;99.90
9043;DHT22;4556;49.150;8.808;2022-10-16T05:56:52;16.10;99.90
9043;DHT22;4556;49.150;8.808;2022-10-16T05:59:19;14.90;99.90
9043;DHT22;4556;49.150;8.808;2022-10-16T06:01:46;16.90;99.90
9043;DHT22;4556;49.150;8.808;2022-10-16T06:04:13;16.10;99.90
9043;DHT22;4556;49.150;8.808;2022-10-16T06:06:40;14.90;99.90
9043;DHT22;4556;49.150;8.808;2022-10-16T06:09:09;14.90;99.90
9043;DHT22;4556;49.150;8.808;2022-10-16T06:11:36;16.30;99.90
9043;DHT22;4556;49.150;8.808;2022-10-16T06:14:03;15.00;99.90
9043;DHT22;4556;49.150;8.808;2022-10-16T06:16:33;15.10;99.90
9043;DHT22;4556;49.150;8.808;2022-10-16T06:19:00;15.00;99.90
9043;DHT22;4556;49.150;8.808;2022-10-16T06:21:28;15.30;99.90
9043;DHT22;4556;49.150;8.808;2022-10-16T06:23:56;14.90;99.90
9043;DHT22;4556;49.150;8.808;2022-10-16T06:26:26;14.90;99.90
9043;DHT22;4556;49.150;8.808;2022-10-16T06:28:54;14.80;99.90
9043;DHT22;4556;49.150;8.808;2022-10-16T06:31:21;15.90;99.90
9043;DHT22;4556;49.150;8.808;2022-10-16T06:33:53;15.00;99.90
9043;DHT22;4556;49.150;8.808;2022-10-16T06:36:20;15.00;99.90
9043;DHT22;4556;49.150;8.808;2022-10-16T06:38:48;15.00;99.90
9043;DHT22;4556;49.150;8.808;2022-10-16T06:41:16;15.80;99.90
9043;DHT22;4556;49.150;8.808;2022-10-16T06:43:46;15.10;99.90
9043;DHT22;4556;49.150;8.808;2022-10-16T06:46:15;16.90;99.90
9043;DHT22;4556;49.150;8.808;2022-10-16T06:48:43;15.00;99.90
9043;DHT22;4556;49.150;8.808;2022-10-16T06:51:11;15.10;99.90
9043;DHT22;4556;49.150;8.808;2022-10-16T06:53:40;14.90;99.90
9043;DHT22;4556;49.150;8.808;2022-10-16T06:56:08;16.70;99.90
9043;DHT22;4556;49.150;8.808;2022-10-16T06:58:36;15.00;99.90
9043;DHT22;4556;49.150;8.808;2022-10-16T07:01:05;16.90;99.90
9043;DHT22;4556;49.150;8.808;2022-10-16T07:03:32;16.70;99.90
9043;DHT22;4556;49.150;8.808;2022-10-16T07:06:02;15.20;99.90
9043;DHT22;4556;49.150;8.808;2022-10-16T07:08:31;15.40;99.90
9043;DHT22;4556;49.150;8.808;2022-10-16T07:11:00;15.20;99.90
9043;DHT22;4556;49.150;8.808;2022-10-16T07:13:27;15.30;99.90
9043;DHT22;4556;49.150;8.808;2022-10-16T07:15:54;16.90;99.90
9043;DHT22;4556;49.150;8.808;2022-10-16T07:18:23;14.70;99.90
9043;DHT22;4556;49.150;8.808;2022-10-16T07:20:52;15.30;99.90
9043;DHT22;4556;49.150;8.808;2022-10-16T07:23:19;15.30;99.90
9043;DHT22;4556;49.150;8.808;2022-10-16T07:25:53;16.60;99.90
9043;DHT22;4556;49.150;8.808;2022-10-16T07:28:21;17.40;99.90
9043;DHT22;4556;49.150;8.808;2022-10-16T07:30:48;15.70;99.90
9043;DHT22;4556;49.150;8.808;2022-10-16T07:33:15;15.90;99.90
9043;DHT22;4556;49.150;8.808;2022-10-16T07:35:49;16.00;99.90
9043;DHT22;4556;49.150;8.808;2022-10-16T07:38:17;16.30;99.90
9043;DHT22;4556;49.150;8.808;2022-10-16T07:40:44;20.00;99.90
9043;DHT22;4556;49.150;8.808;2022-10-16T07:43:11;16.30;99.90
9043;DHT22;4556;49.150;8.808;2022-10-16T07:45:46;16.40;99.90
9043;DHT22;4556;49.150;8.808;2022-10-16T07:48:14;16.50;99.90
9043;DHT22;4556;49.150;8.808;2022-10-16T07:50:41;16.60;99.90
9043;DHT22;4556;49.150;8.808;2022-10-16T07:53:11;16.70;99.90
9043;DHT22;4556;49.150;8.808;2022-10-16T07:55:38;16.80;99.90
9043;DHT22;4556;49.150;8.808;2022-10-16T07:58:06;16.80;99.90
9043;DHT22;4556;49.150;8.808;2022-10-16T08:00:33;18.00;99.90
9043;DHT22;4556;49.150;8.808;2022-10-16T08:03:00;16.90;99.90
9043;DHT22;4556;49.150;8.808;2022-10-16T08:05:28;17.00;99.90
9043;DHT22;4556;49.150;8.808;2022-10-16T08:07:56;17.00;99.90
9043;DHT22;4556;49.150;8.808;2022-10-16T08:10:26;17.10;99.90
9043;DHT22;4556;49.150;8.808;2022-10-16T08:12:54;17.00;99.90
9043;DHT22;4556;49.150;8.808;2022-10-16T08:15:21;17.00;99.90
9043;DHT22;4556;49.150;8.808;2022-10-16T08:17:55;18.20;99.90
9043;DHT22;4556;49.150;8.808;2022-10-16T08:20:22;17.10;99.90
9043;DHT22;4556;49.150;8.808;2022-10-16T08:22:49;18.50;99.90
9043;DHT22;4556;49.150;8.808;2022-10-16T08:25:16;17.40;99.90
9043;DHT22;4556;49.150;8.808;2022-10-16T08:27:45;18.10;99.90
9043;DHT22;4556;49.150;8.808;2022-10-16T08:30:13;19.60;99.90
9043;DHT22;4556;49.150;8.808;2022-10-16T08:32:40;17.60;99.90
9043;DHT22;4556;49.150;8.808;2022-10-16T08:35:08;17.70;99.90
9043;DHT22;4556;49.150;8.808;2022-10-16T08:37:36;19.10;99.90
9043;DHT22;4556;49.150;8.808;2022-10-16T08:40:06;17.80;99.90
9043;DHT22;4556;49.150;8.808;2022-10-16T08:42:50;18.00;99.90
9043;DHT22;4556;49.150;8.808;2022-10-16T08:45:27;18.00;99.90
9043;DHT22;4556;49.150;8.808;2022-10-16T08:48:06;18.10;99.90
9043;DHT22;4556;49.150;8.808;2022-10-16T08:50:38;18.20;99.90
9043;DHT22;4556;49.150;8.808;2022-10-16T08:53:07;20.00;99.90
9043;DHT22;4556;49.150;8.808;2022-10-16T08:55:41;18.10;99.90
9043;DHT22;4556;49.150;8.808;2022-10-16T08:58:15;18.40;99.90
9043;DHT22;4556;49.150;8.808;2022-10-16T09:00:44;20.30;99.90
9043;DHT22;4556;49.150;8.808;2022-10-16T09:03:19;18.70;99.90
9043;DHT22;4556;49.150;8.808;2022-10-16T09:08:58;18.70;99.90
9043;DHT22;4556;49.150;8.808;2022-10-16T09:11:38;18.80;99.90
9043;DHT22;4556;49.150;8.808;2022-10-16T09:14:22;19.00;99.90
9043;DHT22;4556;49.150;8.808;2022-10-16T09:17:08;19.10;99.90
9043;DHT22;4556;49.150;8.808;2022-10-16T09:19:44;21.10;99.90
9043;DHT22;4556;49.150;8.808;2022-10-16T09:22:15;19.40;99.90
9043;DHT22;4556;49.150;8.808;2022-10-16T09:24:43;19.50;99.90
9043;DHT22;4556;49.150;8.808;2022-10-16T09:27:10;19.50;99.90
9043;DHT22;4556;49.150;8.808;2022-10-16T09:29:39;19.50;99.90
9043;DHT22;4556;49.150;8.808;2022-10-16T09:32:11;19.50;99.90
9043;DHT22;4556;49.150;8.808;2022-10-16T09:34:42;19.60;99.90
9043;DHT22;4556;49.150;8.808;2022-10-16T09:37:13;19.70;99.90
9043;DHT22;4556;49.150;8.808;2022-10-16T09:39:44;19.60;99.90
9043;DHT22;4556;49.150;8.808;2022-10-16T09:42:14;19.60;99.90
9043;DHT22;4556;49.150;8.808;2022-10-16T09:44:47;19.50;99.90
9043;DHT22;4556;49.150;8.808;2022-10-16T09:47:17;19.40;99.90
9043;DHT22;4556;49.150;8.808;2022-10-16T09:49:52;21.50;99.90
9043;DHT22;4556;49.150;8.808;2022-10-16T09:52:22;19.30;99.90
9043;DHT22;4556;49.150;8.808;2022-10-16T09:54:50;19.30;99.90
9043;DHT22;4556;49.150;8.808;2022-10-16T09:57:18;19.40;99.90
9043;DHT22;4556;49.150;8.808;2022-10-16T09:59:48;19.60;99.90
9043;DHT22;4556;49.150;8.808;2022-10-16T10:02:16;19.70;99.90
9043;DHT22;4556;49.150;8.808;2022-10-16T10:04:49;19.80;99.90
9043;DHT22;4556;49.150;8.808;2022-10-16T10:07:24;19.80;99.90
9043;DHT22;4556;49.150;8.808;2022-10-16T10:09:52;20.80;99.90
9043;DHT22;4556;49.150;8.808;2022-10-16T10:12:21;19.70;99.90
9043;DHT22;4556;49.150;8.808;2022-10-16T10:14:52;19.40;99.90
9043;DHT22;4556;49.150;8.808;2022-10-16T10:17:21;19.40;99.90
9043;DHT22;4556;49.150;8.808;2022-10-16T10:19:51;19.40;99.90
9043;DHT22;4556;49.150;8.808;2022-10-16T10:22:23;19.60;99.90
9043;DHT22;4556;49.150;8.808;2022-10-16T10:25:15;20.80;99.90
9043;DHT22;4556;49.150;8.808;2022-10-16T10:28:07;19.70;99.90
9043;DHT22;4556;49.150;8.808;2022-10-16T10:30:44;20.10;99.90
9043;DHT22;4556;49.150;8.808;2022-10-16T10:33:20;20.20;99.90
9043;DHT22;4556;49.150;8.808;2022-10-16T10:35:56;20.10;99.90
9043;DHT22;4556;49.150;8.808;2022-10-16T10:38:33;20.00;99.90
9043;DHT22;4556;49.150;8.808;2022-10-16T10:41:14;19.80;99.90
9043;DHT22;4556;49.150;8.808;2022-10-16T10:43:55;19.90;99.90
9043;DHT22;4556;49.150;8.808;2022-10-16T10:46:34;19.90;99.90
9043;DHT22;4556;49.150;8.808;2022-10-16T10:49:32;19.80;99.90
9043;DHT22;4556;49.150;8.808;2022-10-16T10:52:10;19.80;99.90
9043;DHT22;4556;49.150;8.808;2022-10-16T10:54:42;19.80;99.90
9043;DHT22;4556;49.150;8.808;2022-10-16T10:57:28;19.80;99.90
9043;DHT22;4556;49.150;8.808;2022-10-16T11:00:07;19.80;99.90
9043;DHT22;4556;49.150;8.808;2022-10-16T11:02:42;19.80;99.90
9043;DHT22;4556;49.150;8.808;2022-10-16T11:05:27;19.80;99.90
9043;DHT22;4556;49.150;8.808;2022-10-16T11:07:59;19.90;99.90
9043;DHT22;4556;49.150;8.808;2022-10-16T11:10:31;19.90;99.90
9043;DHT22;4556;49.150;8.808;2022-10-16T11:13:06;20.00;99.90
9043;DHT22;4556;49.150;8.808;2022-10-16T11:15:39;20.10;99.90
9043;DHT22;4556;49.150;8.808;2022-10-16T11:18:15;20.20;99.90
9043;DHT22;4556;49.150;8.808;2022-10-16T11:20:49;20.60;99.90
9043;DHT22;4556;49.150;8.808;2022-10-16T11:23:23;20.20;99.90
9043;DHT22;4556;49.150;8.808;2022-10-16T11:25:52;20.20;99.90
9043;DHT22;4556;49.150;8.808;2022-10-16T11:28:26;20.20;99.90
9043;DHT22;4556;49.150;8.808;2022-10-16T11:30:58;20.20;99.90
9043;DHT22;4556;49.150;8.808;2022-10-16T11:33:34;20.10;99.90
9043;DHT22;4556;49.150;8.808;2022-10-16T11:36:08;20.80;99.90
9043;DHT22;4556;49.150;8.808;2022-10-16T11:38:43;19.80;99.90
9043;DHT22;4556;49.150;8.808;2022-10-16T11:41:18;20.30;99.90
9043;DHT22;4556;49.150;8.808;2022-10-16T11:43:52;19.80;99.90
9043;DHT22;4556;49.150;8.808;2022-10-16T11:46:24;19.70;99.90
9043;DHT22;4556;49.150;8.808;2022-10-16T11:49:00;20.70;99.90
9043;DHT22;4556;49.150;8.808;2022-10-16T11:51:35;19.80;99.90
9043;DHT22;4556;49.150;8.808;2022-10-16T11:54:09;19.90;99.90
9043;DHT22;4556;49.150;8.808;2022-10-16T11:56:43;20.10;99.90
9043;DHT22;4556;49.150;8.808;2022-10-16T11:59:19;20.10;99.90
9043;DHT22;4556;49.150;8.808;2022-10-16T12:01:50;20.20;99.90
9043;DHT22;4556;49.150;8.808;2022-10-16T12:04:24;20.20;99.90
9043;DHT22;4556;49.150;8.808;2022-10-16T12:06:57;20.30;99.90
9043;DHT22;4556;49.150;8.808;2022-10-16T12:09:30;20.80;99.90
9043;DHT22;4556;49.150;8.808;2022-10-16T12:11:57;20.30;99.90
9043;DHT22;4556;49.150;8.808;2022-10-16T12:14:36;20.30;99.90
9043;DHT22;4556;49.150;8.808;2022-10-16T12:17:24;20.30;99.90
9043;DHT22;4556;49.150;8.808;2022-10-16T12:20:00;20.30;99.90
9043;DHT22;4556;49.150;8.808;2022-10-16T12:22:29;20.40;99.90
9043;DHT22;4556;49.150;8.808;2022-10-16T12:24:57;20.40;99.90
9043;DHT22;4556;49.150;8.808;2022-10-16T12:27:28;20.40;99.90
9043;DHT22;4556;49.150;8.808;2022-10-16T12:29:56;20.50;99.90
9043;DHT22;4556;49.150;8.808;2022-10-16T12:32:28;20.50;99.90
9043;DHT22;4556;49.150;8.808;2022-10-16T12:34:58;21.30;99.90
9043;DHT22;4556;49.150;8.808;2022-10-16T12:37:27;20.50;99.90
9043;DHT22;4556;49.150;8.808;2022-10-16T12:39:56;20.50;99.90
9043;DHT22;4556;49.150;8.808;2022-10-16T12:42:32;20.50;99.90
9043;DHT22;4556;49.150;8.808;2022-10-16T12:47:46;20.40;99.90
9043;DHT22;4556;49.150;8.808;2022-10-16T12:50:30;20.40;99.90
9043;DHT22;4556;49.150;8.808;2022-10-16T12:52:58;20.50;99.90
9043;DHT22;4556;49.150;8.808;2022-10-16T12:55:26;20.60;99.90
9043;DHT22;4556;49.150;8.808;2022-10-16T12:58:15;20.70;99.90
9043;DHT22;4556;49.150;8.808;2022-10-16T13:00:54;20.70;99.90
9043;DHT22;4556;49.150;8.808;2022-10-16T13:03:48;20.60;99.90
9043;DHT22;4556;49.150;8.808;2022-10-16T13:06:30;20.60;99.90
9043;DHT22;4556;49.150;8.808;2022-10-16T13:09:14;20.70;99.90
9043;DHT22;4556;49.150;8.808;2022-10-16T13:12:07;20.70;99.90
9043;DHT22;4556;49.150;8.808;2022-10-16T13:14:49;20.50;99.90
9043;DHT22;4556;49.150;8.808;2022-10-16T13:17:24;20.40;99.90
9043;DHT22;4556;49.150;8.808;2022-10-16T13:20:02;22.30;99.90
9043;DHT22;4556;49.150;8.808;2022-10-16T13:22:40;20.30;99.90
9043;DHT22;4556;49.150;8.808;2022-10-16T13:25:21;20.20;99.90
9043;DHT22;4556;49.150;8.808;2022-10-16T13:27:54;20.10;99.90
9043;DHT22;4556;49.150;8.808;2022-10-16T13:30:36;20.10;99.90
9043;DHT22;4556;49.150;8.808;2022-10-16T13:33:12;20.10;99.90
9043;DHT22;4556;49.150;8.808;2022-10-16T13:35:48;20.00;99.90
9043;DHT22;4556;49.150;8.808;2022-10-16T13:38:18;20.60;99.90
9043;DHT22;4556;49.150;8.808;2022-10-16T13:40:55;21.20;99.90
9043;DHT22;4556;49.150;8.808;2022-10-16T13:43:26;21.90;99.90
9043;DHT22;4556;49.150;8.808;2022-10-16T13:45:59;20.10;99.90
9043;DHT22;4556;49.150;8.808;2022-10-16T13:48:28;19.80;99.90
9043;DHT22;4556;49.150;8.808;2022-10-16T13:50:59;19.80;99.90
9043;DHT22;4556;49.150;8.808;2022-10-16T13:53:30;19.90;99.90
9043;DHT22;4556;49.150;8.808;2022-10-16T13:55:57;20.00;99.90
9043;DHT22;4556;49.150;8.808;2022-10-16T13:58:26;19.90;99.90
9043;DHT22;4556;49.150;8.808;2022-10-16T14:00:57;20.20;99.90
9043;DHT22;4556;49.150;8.808;2022-10-16T14:03:26;20.10;99.90
9043;DHT22;4556;49.150;8.808;2022-10-16T14:05:55;20.00;99.90
9043;DHT22;4556;49.150;8.808;2022-10-16T14:08:25;20.00;99.90
9043;DHT22;4556;49.150;8.808;2022-10-16T14:10:56;20.20;99.90
9043;DHT22;4556;49.150;8.808;2022-10-16T14:13:29;20.20;99.90
9043;DHT22;4556;49.150;8.808;2022-10-16T14:16:00;20.00;99.90
9043;DHT22;4556;49.150;8.808;2022-10-16T14:18:30;20.00;99.90
9043;DHT22;4556;49.150;8.808;2022-10-16T14:21:03;21.90;99.90
9043;DHT22;4556;49.150;8.808;2022-10-16T14:23:32;19.80;99.90
9043;DHT22;4556;49.150;8.808;2022-10-16T14:26:15;19.80;99.90
9043;DHT22;4556;49.150;8.808;2022-10-16T14:28:43;19.70;99.90
9043;DHT22;4556;49.150;8.808;2022-10-16T14:31:25;19.70;99.90
9043;DHT22;4556;49.150;8.808;2022-10-16T14:33:52;19.70;99.90
9043;DHT22;4556;49.150;8.808;2022-10-16T14:36:20;19.60;99.90
9043;DHT22;4556;49.150;8.808;2022-10-16T14:38:52;19.60;99.90
9043;DHT22;4556;49.150;8.808;2022-10-16T14:41:23;19.70;99.90
9043;DHT22;4556;49.150;8.808;2022-10-16T14:43:53;19.60;99.90
9043;DHT22;4556;49.150;8.808;2022-10-16T14:46:23;19.60;99.90
9043;DHT22;4556;49.150;8.808;2022-10-16T14:49:00;19.60;99.90
9043;DHT22;4556;49.150;8.808;2022-10-16T14:53:54;19.60;99.90
9043;DHT22;4556;49.150;8.808;2022-10-16T14:56:25;19.70;99.90
9043;DHT22;4556;49.150;8.808;2022-10-16T14:58:53;20.60;99.90
9043;DHT22;4556;49.150;8.808;2022-10-16T15:01:20;19.60;99.90
9043;DHT22;4556;49.150;8.808;2022-10-16T15:03:48;19.60;99.90
9043;DHT22;4556;49.150;8.808;2022-10-16T15:06:17;19.60;99.90
9043;DHT22;4556;49.150;8.808;2022-10-16T15:11:13;19.70;99.90
9043;DHT22;4556;49.150;8.808;2022-10-16T15:13:42;17.70;99.90
9043;DHT22;4556;49.150;8.808;2022-10-16T15:16:11;19.80;99.90
9043;DHT22;4556;49.150;8.808;2022-10-16T15:18:46;21.10;99.90
9043;DHT22;4556;49.150;8.808;2022-10-16T15:21:20;20.00;99.90
9043;DHT22;4556;49.150;8.808;2022-10-16T15:23:49;20.40;99.90
9043;DHT22;4556;49.150;8.808;2022-10-16T15:26:16;20.00;99.90
9043;DHT22;4556;49.150;8.808;2022-10-16T15:28:45;20.20;99.90
9043;DHT22;4556;49.150;8.808;2022-10-16T15:31:12;21.30;99.90
9043;DHT22;4556;49.150;8.808;2022-10-16T15:33:39;19.70;99.90
9043;DHT22;4556;49.150;8.808;2022-10-16T15:36:07;19.70;99.90
9043;DHT22;4556;49.150;8.808;2022-10-16T15:38:34;19.60;99.90
9043;DHT22;4556;49.150;8.808;2022-10-16T15:41:02;18.30;99.90
9043;DHT22;4556;49.150;8.808;2022-10-16T15:43:29;19.40;99.90
9043;DHT22;4556;49.150;8.808;2022-10-16T15:46:02;19.30;99.90
9043;DHT22;4556;49.150;8.808;2022-10-16T15:48:31;19.20;99.90
9043;DHT22;4556;49.150;8.808;2022-10-16T15:50:59;19.10;99.90
9043;DHT22;4556;49.150;8.808;2022-10-16T15:53:26;19.20;99.90
9043;DHT22;4556;49.150;8.808;2022-10-16T15:55:53;19.20;99.90
9043;DHT22;4556;49.150;8.808;2022-10-16T15:58:20;19.20;99.90
9043;DHT22;4556;49.150;8.808;2022-10-16T16:00:54;19.10;99.90
9043;DHT22;4556;49.150;8.808;2022-10-16T16:03:23;18.90;99.90
9043;DHT22;4556;49.150;8.808;2022-10-16T16:05:50;18.90;99.90
9043;DHT22;4556;49.150;8.808;2022-10-16T16:08:17;18.80;99.90
9043;DHT22;4556;49.150;8.808;2022-10-16T16:10:44;18.70;99.90
9043;DHT22;4556;49.150;8.808;2022-10-16T16:13:11;18.80;99.90
9043;DHT22;4556;49.150;8.808;2022-10-16T16:15:39;18.90;99.90
9043;DHT22;4556;49.150;8.808;2022-10-16T16:18:06;19.90;99.90
9043;DHT22;4556;49.150;8.808;2022-10-16T16:20:36;18.80;99.90
9043;DHT22;4556;49.150;8.808;2022-10-16T16:23:03;18.70;99.90
9043;DHT22;4556;49.150;8.808;2022-10-16T16:25:30;18.60;99.90
9043;DHT22;4556;49.150;8.808;2022-10-16T16:27:57;18.40;99.90
9043;DHT22;4556;49.150;8.808;2022-10-16T16:30:24;18.40;99.90
9043;DHT22;4556;49.150;8.808;2022-10-16T16:32:51;18.20;99.90
9043;DHT22;4556;49.150;8.808;2022-10-16T16:35:18;18.10;99.90
9043;DHT22;4556;49.150;8.808;2022-10-16T16:37:48;18.00;99.90